Saturday, October 20, 2018, 10:15 PM EDT
Back to Local

KDXR, Danbury Municipal Airport

Location: Danbury, CT, United States Lat: 41.367
Local Time: 10:15 PM EDT ( 2:15 GMT) Lon: -73.483
Time Zone: US/Eastern Elev: 459 ft

Show me the last for .
Show Decoded

2018-10-20 21:53 METAR KDXR 210153Z 23003KT 10SM BKN080 06/06 A2963 RMK AO2 SLP033 T00610056 =
2018-10-20 20:53 METAR KDXR 210053Z 24003KT 10SM FEW080 07/06 A2963 RMK AO2 SLP031 T00720061 =
2018-10-20 19:53 METAR KDXR 202353Z 23004KT 10SM FEW070 08/07 A2962 RMK AO2 SLP030 T00830067
                 10167 20083 51007 =
2018-10-20 18:53 METAR KDXR 202253Z 00000KT 10SM CLR 10/06 A2962 RMK AO2 SLP029 T01000061 =
2018-10-20 17:53 METAR KDXR 202153Z 31007KT 280V340 10SM BKN050 13/06 A2962 RMK AO2 SLP028
                 T01330061 =
2018-10-20 16:53 METAR KDXR 202053Z 27006KT 10SM FEW050 OVC070 15/06 A2960 RMK AO2 SLP023
                 T01500061 56015 =
2018-10-20 15:53 METAR KDXR 201953Z 26009G20KT 10SM FEW050 BKN080 16/06 A2961 RMK AO2 SLP025
                 T01560056 =
2018-10-20 14:53 METAR KDXR 201853Z 23009KT 10SM FEW039 SCT050 BKN070 16/08 A2962 RMK AO2 SLP029
                 T01610078 =
2018-10-20 13:53 METAR KDXR 201753Z 25007KT 10SM SCT039 BKN055 16/08 A2965 RMK AO2 SLP038
                 T01610083 10161 20111 58022 =
2018-10-20 12:53 METAR KDXR 201653Z 26009KT 10SM BKN040 OVC048 14/08 A2968 RMK AO2 SLP048
                 T01440083 =
2018-10-20 11:53 METAR KDXR 201553Z 25007KT 10SM FEW019 BKN032 OVC039 14/09 A2970 RMK AO2 SLP055
                 T01390094 =
2018-10-20 11:45 METAR KDXR 201545Z 24010KT 10SM SCT021 BKN026 BKN032 14/09 A2970 RMK AO2
                 T01390094 =
2018-10-20 10:53 METAR KDXR 201453Z 24011KT 10SM FEW018 FEW022 OVC033 13/10 A2971 RMK AO2 SLP061
                 T01280100 56009 =
2018-10-20 10:15 METAR KDXR 201415Z 26012G21KT 10SM SCT015 BKN022 BKN075 13/10 A2972 RMK AO2
                 T01280100 =
2018-10-20 09:53 METAR KDXR 201353Z 24009KT 10SM SCT013 BKN075 13/11 A2972 RMK AO2 SLP063
                 T01280106 =
2018-10-20 09:10 METAR KDXR 201310Z 22007KT 10SM SCT011 BKN033 OVC075 12/10 A2974 RMK AO2
                 T01170100 =
2018-10-20 08:53 METAR KDXR 201253Z 22008KT 8SM BKN012 BKN033 OVC060 11/10 A2974 RMK AO2 SLP071
                 T01110100 =
2018-10-20 07:53 METAR KDXR 201153Z 23009KT 9SM BKN014 OVC043 11/09 A2974 RMK AO2 SLP072 60005
                 70005 T01110094 10122 20100 55003 =
2018-10-20 07:27 METAR KDXR 201127Z 23007KT 10SM BKN013 OVC025 11/09 A2974 RMK AO2 T01110094 =
2018-10-20 07:09 METAR KDXR 201109Z 22008KT 10SM FEW015 BKN026 OVC048 11/09 A2973 RMK AO2
                 T01060094 =
2018-10-20 06:53 METAR KDXR 201053Z 22007KT 10SM FEW026 SCT033 OVC050 11/09 A2973 RMK AO2 SLP068
                 T01060094 =
2018-10-20 05:53 METAR KDXR 200953Z AUTO 23007KT 10SM OVC060 11/09 A2975 RMK AO2 RAB08E22 SLP073
                 P0000 T01060089 =
2018-10-20 04:53 METAR KDXR 200853Z AUTO 20010KT 10SM OVC070 11/09 A2975 RMK AO2 RAE38 SLP075
                 P0003 60005 T01060089 58034 =
2018-10-20 03:53 METAR KDXR 200753Z AUTO 20010KT 10SM -RA BKN080 OVC095 10/08 A2978 RMK AO2
                 SLP085 P0001 T01000083 =
2018-10-20 02:53 METAR KDXR 200653Z AUTO 24006KT 10SM -RA OVC075 11/08 A2983 RMK AO2 RAB00 SLP101
                 P0001 T01060083 =
2018-10-20 01:53 METAR KDXR 200553Z AUTO 21009KT 10SM FEW070 BKN090 OVC110 12/06 A2985 RMK AO2
                 SLP108 T01220061 10122 20100 56024 =
2018-10-20 00:53 METAR KDXR 200453Z AUTO 20009KT 10SM SCT120 12/06 A2987 RMK AO2 SLP113 T01170056
                 401441011 =
2018-10-19 23:53 METAR KDXR 200353Z AUTO 21008KT 10SM CLR 12/06 A2991 RMK AO2 SLP129 T01170056 =
2018-10-19 22:53 METAR KDXR 200253Z AUTO 22007KT 10SM CLR 11/06 A2993 RMK AO2 SLP133 T01110056
                 56033 =

Support USWX by starting your Amazon purchase here.